sensor_id;sensor_type;location;lat;lon;timestamp;temperature;humidity
42147;DHT22;27815;43.410;11.852;2022-08-19T00:02:05;20.50;81.50
42147;DHT22;27815;43.410;11.852;2022-08-19T00:06:08;20.50;81.40
42147;DHT22;27815;43.410;11.852;2022-08-19T00:10:14;20.50;81.30
42147;DHT22;27815;43.410;11.852;2022-08-19T00:14:17;20.60;81.30
42147;DHT22;27815;43.410;11.852;2022-08-19T00:18:20;20.70;81.10
42147;DHT22;27815;43.410;11.852;2022-08-19T00:22:24;20.80;81.10
42147;DHT22;27815;43.410;11.852;2022-08-19T00:26:28;20.80;81.30
42147;DHT22;27815;43.410;11.852;2022-08-19T00:30:31;20.60;82.30
42147;DHT22;27815;43.410;11.852;2022-08-19T00:34:34;20.60;82.30
42147;DHT22;27815;43.410;11.852;2022-08-19T00:38:39;20.70;82.20
42147;DHT22;27815;43.410;11.852;2022-08-19T00:42:46;20.80;82.00
42147;DHT22;27815;43.410;11.852;2022-08-19T00:46:50;20.80;81.80
42147;DHT22;27815;43.410;11.852;2022-08-19T00:51:00;20.80;81.60
42147;DHT22;27815;43.410;11.852;2022-08-19T00:55:05;20.80;81.60
42147;DHT22;27815;43.410;11.852;2022-08-19T00:59:11;20.80;81.60
42147;DHT22;27815;43.410;11.852;2022-08-19T01:03:17;20.90;81.40
42147;DHT22;27815;43.410;11.852;2022-08-19T01:07:21;20.90;81.30
42147;DHT22;27815;43.410;11.852;2022-08-19T01:11:27;20.80;80.60
42147;DHT22;27815;43.410;11.852;2022-08-19T01:15:40;20.70;81.30
42147;DHT22;27815;43.410;11.852;2022-08-19T01:19:45;20.70;81.40
42147;DHT22;27815;43.410;11.852;2022-08-19T01:23:49;20.70;81.20
42147;DHT22;27815;43.410;11.852;2022-08-19T01:27:53;20.70;81.10
42147;DHT22;27815;43.410;11.852;2022-08-19T01:32:03;20.80;81.00
42147;DHT22;27815;43.410;11.852;2022-08-19T01:36:16;20.90;81.00
42147;DHT22;27815;43.410;11.852;2022-08-19T01:40:21;20.90;81.20
42147;DHT22;27815;43.410;11.852;2022-08-19T01:44:24;20.90;81.20
42147;DHT22;27815;43.410;11.852;2022-08-19T01:48:27;20.90;81.00
42147;DHT22;27815;43.410;11.852;2022-08-19T01:52:36;20.90;81.20
42147;DHT22;27815;43.410;11.852;2022-08-19T01:56:39;21.00;81.30
42147;DHT22;27815;43.410;11.852;2022-08-19T02:00:43;21.10;81.20
42147;DHT22;27815;43.410;11.852;2022-08-19T02:04:48;21.10;81.00
42147;DHT22;27815;43.410;11.852;2022-08-19T02:08:51;21.20;80.80
42147;DHT22;27815;43.410;11.852;2022-08-19T02:12:59;21.20;80.80
42147;DHT22;27815;43.410;11.852;2022-08-19T02:17:02;21.30;80.80
42147;DHT22;27815;43.410;11.852;2022-08-19T02:21:05;21.30;80.70
42147;DHT22;27815;43.410;11.852;2022-08-19T02:25:10;21.40;80.70
42147;DHT22;27815;43.410;11.852;2022-08-19T02:29:14;21.40;80.70
42147;DHT22;27815;43.410;11.852;2022-08-19T02:33:17;21.40;80.70
42147;DHT22;27815;43.410;11.852;2022-08-19T02:37:20;21.50;80.60
42147;DHT22;27815;43.410;11.852;2022-08-19T02:41:41;21.40;80.50
42147;DHT22;27815;43.410;11.852;2022-08-19T02:45:44;21.40;80.50
42147;DHT22;27815;43.410;11.852;2022-08-19T02:49:48;21.50;80.40
42147;DHT22;27815;43.410;11.852;2022-08-19T02:53:52;21.50;80.20
42147;DHT22;27815;43.410;11.852;2022-08-19T02:57:55;21.40;80.20
42147;DHT22;27815;43.410;11.852;2022-08-19T03:01:59;21.40;80.30
42147;DHT22;27815;43.410;11.852;2022-08-19T03:06:14;21.30;80.50
42147;DHT22;27815;43.410;11.852;2022-08-19T03:10:17;21.30;80.80
42147;DHT22;27815;43.410;11.852;2022-08-19T03:14:21;21.30;80.60
42147;DHT22;27815;43.410;11.852;2022-08-19T03:18:25;21.20;80.60
42147;DHT22;27815;43.410;11.852;2022-08-19T03:22:29;21.20;80.60
42147;DHT22;27815;43.410;11.852;2022-08-19T03:26:33;21.00;81.00
42147;DHT22;27815;43.410;11.852;2022-08-19T03:30:36;21.10;81.00
42147;DHT22;27815;43.410;11.852;2022-08-19T03:34:43;21.10;80.80
42147;DHT22;27815;43.410;11.852;2022-08-19T03:38:51;21.10;80.80
42147;DHT22;27815;43.410;11.852;2022-08-19T03:43:01;21.10;81.10
42147;DHT22;27815;43.410;11.852;2022-08-19T03:47:05;21.00;81.00
42147;DHT22;27815;43.410;11.852;2022-08-19T03:51:19;21.00;81.20
42147;DHT22;27815;43.410;11.852;2022-08-19T03:55:32;21.00;81.50
42147;DHT22;27815;43.410;11.852;2022-08-19T03:59:36;21.00;81.50
42147;DHT22;27815;43.410;11.852;2022-08-19T04:03:40;21.00;81.50
42147;DHT22;27815;43.410;11.852;2022-08-19T04:07:43;21.00;81.50
42147;DHT22;27815;43.410;11.852;2022-08-19T04:11:50;21.00;81.50
42147;DHT22;27815;43.410;11.852;2022-08-19T04:15:56;21.00;81.60
42147;DHT22;27815;43.410;11.852;2022-08-19T04:19:59;21.00;81.60
42147;DHT22;27815;43.410;11.852;2022-08-19T04:24:09;21.10;81.60
42147;DHT22;27815;43.410;11.852;2022-08-19T04:28:13;21.10;81.60
42147;DHT22;27815;43.410;11.852;2022-08-19T04:32:16;21.10;81.60
42147;DHT22;27815;43.410;11.852;2022-08-19T04:36:24;21.10;81.60
42147;DHT22;27815;43.410;11.852;2022-08-19T04:40:28;21.10;81.90
42147;DHT22;27815;43.410;11.852;2022-08-19T04:44:49;21.00;82.00
42147;DHT22;27815;43.410;11.852;2022-08-19T04:48:53;21.10;82.00
42147;DHT22;27815;43.410;11.852;2022-08-19T04:52:56;21.10;82.20
42147;DHT22;27815;43.410;11.852;2022-08-19T04:56:59;21.10;82.70
42147;DHT22;27815;43.410;11.852;2022-08-19T05:01:03;21.00;82.80
42147;DHT22;27815;43.410;11.852;2022-08-19T05:05:07;21.00;82.90
42147;DHT22;27815;43.410;11.852;2022-08-19T05:09:10;21.10;82.70
42147;DHT22;27815;43.410;11.852;2022-08-19T05:13:14;21.20;82.60
42147;DHT22;27815;43.410;11.852;2022-08-19T05:17:17;21.30;82.50
42147;DHT22;27815;43.410;11.852;2022-08-19T05:21:41;21.40;82.40
42147;DHT22;27815;43.410;11.852;2022-08-19T05:26:03;21.50;82.30
42147;DHT22;27815;43.410;11.852;2022-08-19T05:30:07;21.50;82.10
42147;DHT22;27815;43.410;11.852;2022-08-19T05:34:11;21.60;82.00
42147;DHT22;27815;43.410;11.852;2022-08-19T05:38:22;21.70;81.90
42147;DHT22;27815;43.410;11.852;2022-08-19T05:42:25;21.70;81.70
42147;DHT22;27815;43.410;11.852;2022-08-19T05:46:29;21.80;81.70
42147;DHT22;27815;43.410;11.852;2022-08-19T05:50:32;21.70;82.10
42147;DHT22;27815;43.410;11.852;2022-08-19T05:54:37;21.60;82.40
42147;DHT22;27815;43.410;11.852;2022-08-19T05:58:43;21.60;82.70
42147;DHT22;27815;43.410;11.852;2022-08-19T06:02:47;21.60;82.50
42147;DHT22;27815;43.410;11.852;2022-08-19T06:06:52;21.70;82.10
42147;DHT22;27815;43.410;11.852;2022-08-19T06:10:55;21.80;82.00
42147;DHT22;27815;43.410;11.852;2022-08-19T06:15:03;21.80;81.80
42147;DHT22;27815;43.410;11.852;2022-08-19T06:19:10;21.80;81.90
42147;DHT22;27815;43.410;11.852;2022-08-19T06:23:13;21.70;82.00
42147;DHT22;27815;43.410;11.852;2022-08-19T06:27:19;21.70;82.00
42147;DHT22;27815;43.410;11.852;2022-08-19T06:31:26;21.80;82.10
42147;DHT22;27815;43.410;11.852;2022-08-19T06:35:30;21.80;82.10
42147;DHT22;27815;43.410;11.852;2022-08-19T06:39:36;21.80;82.00
42147;DHT22;27815;43.410;11.852;2022-08-19T06:43:40;21.80;82.10
42147;DHT22;27815;43.410;11.852;2022-08-19T06:47:45;21.80;81.90
42147;DHT22;27815;43.410;11.852;2022-08-19T06:51:51;21.80;82.00
42147;DHT22;27815;43.410;11.852;2022-08-19T06:55:54;21.80;82.00
42147;DHT22;27815;43.410;11.852;2022-08-19T07:00:04;21.90;81.90
42147;DHT22;27815;43.410;11.852;2022-08-19T07:04:12;22.00;81.90
42147;DHT22;27815;43.410;11.852;2022-08-19T07:08:16;22.00;81.70
42147;DHT22;27815;43.410;11.852;2022-08-19T07:12:20;22.10;81.60
42147;DHT22;27815;43.410;11.852;2022-08-19T07:16:24;22.20;81.40
42147;DHT22;27815;43.410;11.852;2022-08-19T07:20:31;22.30;81.40
42147;DHT22;27815;43.410;11.852;2022-08-19T07:24:37;22.30;81.10
42147;DHT22;27815;43.410;11.852;2022-08-19T07:28:52;22.30;81.30
42147;DHT22;27815;43.410;11.852;2022-08-19T07:32:57;22.40;81.30
42147;DHT22;27815;43.410;11.852;2022-08-19T07:37:00;22.60;81.10
42147;DHT22;27815;43.410;11.852;2022-08-19T07:41:03;22.80;80.60
42147;DHT22;27815;43.410;11.852;2022-08-19T07:45:07;22.90;80.20
42147;DHT22;27815;43.410;11.852;2022-08-19T07:49:12;23.10;80.10
42147;DHT22;27815;43.410;11.852;2022-08-19T07:53:20;23.20;79.80
42147;DHT22;27815;43.410;11.852;2022-08-19T07:57:23;23.50;79.30
42147;DHT22;27815;43.410;11.852;2022-08-19T08:01:27;23.70;79.20
42147;DHT22;27815;43.410;11.852;2022-08-19T08:05:31;23.90;78.10
42147;DHT22;27815;43.410;11.852;2022-08-19T08:09:53;24.20;77.40
42147;DHT22;27815;43.410;11.852;2022-08-19T08:13:57;24.50;76.90
42147;DHT22;27815;43.410;11.852;2022-08-19T08:18:06;24.80;75.30
42147;DHT22;27815;43.410;11.852;2022-08-19T08:22:11;24.80;74.80
42147;DHT22;27815;43.410;11.852;2022-08-19T08:26:34;24.80;74.90
42147;DHT22;27815;43.410;11.852;2022-08-19T08:30:39;25.00;74.20
42147;DHT22;27815;43.410;11.852;2022-08-19T08:34:46;25.10;73.50
42147;DHT22;27815;43.410;11.852;2022-08-19T08:38:54;25.10;73.70
42147;DHT22;27815;43.410;11.852;2022-08-19T08:43:08;25.10;72.50
42147;DHT22;27815;43.410;11.852;2022-08-19T08:47:51;25.20;72.50
42147;DHT22;27815;43.410;11.852;2022-08-19T08:52:07;25.30;72.00
42147;DHT22;27815;43.410;11.852;2022-08-19T08:56:12;25.20;70.70
42147;DHT22;27815;43.410;11.852;2022-08-19T09:00:22;25.10;70.80
42147;DHT22;27815;43.410;11.852;2022-08-19T09:04:27;24.90;71.50
42147;DHT22;27815;43.410;11.852;2022-08-19T09:17:25;24.70;71.90
42147;DHT22;27815;43.410;11.852;2022-08-19T09:22:03;24.80;71.30
42147;DHT22;27815;43.410;11.852;2022-08-19T09:26:11;25.00;70.60
42147;DHT22;27815;43.410;11.852;2022-08-19T09:30:21;25.00;70.50
42147;DHT22;27815;43.410;11.852;2022-08-19T09:34:25;25.10;69.60
42147;DHT22;27815;43.410;11.852;2022-08-19T09:38:29;25.20;70.40
42147;DHT22;27815;43.410;11.852;2022-08-19T09:42:32;25.30;68.80
42147;DHT22;27815;43.410;11.852;2022-08-19T09:46:37;25.30;68.80
42147;DHT22;27815;43.410;11.852;2022-08-19T09:50:40;25.40;68.00
42147;DHT22;27815;43.410;11.852;2022-08-19T09:54:53;25.50;67.60
42147;DHT22;27815;43.410;11.852;2022-08-19T09:59:01;25.60;67.10
42147;DHT22;27815;43.410;11.852;2022-08-19T10:03:06;25.60;66.50
42147;DHT22;27815;43.410;11.852;2022-08-19T10:07:10;25.60;66.00
42147;DHT22;27815;43.410;11.852;2022-08-19T10:11:13;25.50;65.90
42147;DHT22;27815;43.410;11.852;2022-08-19T10:15:37;25.50;66.00
42147;DHT22;27815;43.410;11.852;2022-08-19T10:19:49;25.50;65.60
42147;DHT22;27815;43.410;11.852;2022-08-19T10:24:00;25.40;66.30
42147;DHT22;27815;43.410;11.852;2022-08-19T10:28:04;25.40;66.60
42147;DHT22;27815;43.410;11.852;2022-08-19T10:32:12;25.40;67.10
42147;DHT22;27815;43.410;11.852;2022-08-19T10:36:18;25.50;67.30
42147;DHT22;27815;43.410;11.852;2022-08-19T10:40:21;25.50;66.70
42147;DHT22;27815;43.410;11.852;2022-08-19T10:44:24;25.50;66.30
42147;DHT22;27815;43.410;11.852;2022-08-19T10:48:34;25.60;66.70
42147;DHT22;27815;43.410;11.852;2022-08-19T10:52:37;25.70;66.40
42147;DHT22;27815;43.410;11.852;2022-08-19T10:56:40;25.80;66.30
42147;DHT22;27815;43.410;11.852;2022-08-19T11:00:57;25.80;65.90
42147;DHT22;27815;43.410;11.852;2022-08-19T11:05:02;25.80;65.60
42147;DHT22;27815;43.410;11.852;2022-08-19T11:09:17;25.70;65.90
42147;DHT22;27815;43.410;11.852;2022-08-19T11:13:23;25.70;66.20
42147;DHT22;27815;43.410;11.852;2022-08-19T11:17:27;25.80;66.10
42147;DHT22;27815;43.410;11.852;2022-08-19T11:21:35;25.80;64.60
42147;DHT22;27815;43.410;11.852;2022-08-19T11:25:38;25.80;65.10
42147;DHT22;27815;43.410;11.852;2022-08-19T11:29:41;25.90;64.80
42147;DHT22;27815;43.410;11.852;2022-08-19T11:33:45;26.00;65.20
42147;DHT22;27815;43.410;11.852;2022-08-19T11:37:49;26.10;64.30
42147;DHT22;27815;43.410;11.852;2022-08-19T11:41:52;26.00;64.50
42147;DHT22;27815;43.410;11.852;2022-08-19T11:45:55;26.20;64.40
42147;DHT22;27815;43.410;11.852;2022-08-19T11:49:58;26.30;62.90
42147;DHT22;27815;43.410;11.852;2022-08-19T11:54:04;26.40;62.90
42147;DHT22;27815;43.410;11.852;2022-08-19T11:58:07;26.30;61.90
42147;DHT22;27815;43.410;11.852;2022-08-19T12:02:20;26.20;61.00
42147;DHT22;27815;43.410;11.852;2022-08-19T12:06:27;26.10;62.50
42147;DHT22;27815;43.410;11.852;2022-08-19T12:10:31;25.70;64.50
42147;DHT22;27815;43.410;11.852;2022-08-19T12:14:34;25.10;64.50
42147;DHT22;27815;43.410;11.852;2022-08-19T12:18:39;24.80;65.80
42147;DHT22;27815;43.410;11.852;2022-08-19T12:22:44;24.80;65.90
42147;DHT22;27815;43.410;11.852;2022-08-19T12:26:47;24.70;67.80
42147;DHT22;27815;43.410;11.852;2022-08-19T12:30:56;24.50;68.90
42147;DHT22;27815;43.410;11.852;2022-08-19T12:34:59;24.30;70.10
42147;DHT22;27815;43.410;11.852;2022-08-19T12:39:02;24.00;70.90
42147;DHT22;27815;43.410;11.852;2022-08-19T12:43:07;23.80;71.60
42147;DHT22;27815;43.410;11.852;2022-08-19T12:47:12;23.80;72.20
42147;DHT22;27815;43.410;11.852;2022-08-19T12:51:17;23.70;73.00
42147;DHT22;27815;43.410;11.852;2022-08-19T12:55:22;23.60;71.10
42147;DHT22;27815;43.410;11.852;2022-08-19T12:59:25;23.70;71.80
42147;DHT22;27815;43.410;11.852;2022-08-19T13:03:28;23.80;71.90
42147;DHT22;27815;43.410;11.852;2022-08-19T13:07:32;24.00;71.80
42147;DHT22;27815;43.410;11.852;2022-08-19T13:11:35;24.20;71.60
42147;DHT22;27815;43.410;11.852;2022-08-19T13:15:40;24.20;70.70
42147;DHT22;27815;43.410;11.852;2022-08-19T13:19:43;24.10;70.90
42147;DHT22;27815;43.410;11.852;2022-08-19T13:23:46;23.90;70.70
42147;DHT22;27815;43.410;11.852;2022-08-19T13:27:50;23.60;72.00
42147;DHT22;27815;43.410;11.852;2022-08-19T13:31:53;23.40;72.80
42147;DHT22;27815;43.410;11.852;2022-08-19T13:36:20;23.20;73.40
42147;DHT22;27815;43.410;11.852;2022-08-19T13:40:24;23.10;74.50
42147;DHT22;27815;43.410;11.852;2022-08-19T13:44:28;23.20;73.70
42147;DHT22;27815;43.410;11.852;2022-08-19T13:48:32;23.20;73.30
42147;DHT22;27815;43.410;11.852;2022-08-19T13:52:34;23.10;74.10
42147;DHT22;27815;43.410;11.852;2022-08-19T13:56:41;23.10;73.70
42147;DHT22;27815;43.410;11.852;2022-08-19T14:00:46;23.20;73.10
42147;DHT22;27815;43.410;11.852;2022-08-19T14:04:49;23.50;72.90
42147;DHT22;27815;43.410;11.852;2022-08-19T14:08:52;23.70;72.10
42147;DHT22;27815;43.410;11.852;2022-08-19T14:12:56;23.80;71.30
42147;DHT22;27815;43.410;11.852;2022-08-19T14:17:00;24.00;70.30
42147;DHT22;27815;43.410;11.852;2022-08-19T14:21:04;24.00;70.20
42147;DHT22;27815;43.410;11.852;2022-08-19T14:25:09;24.00;69.10
42147;DHT22;27815;43.410;11.852;2022-08-19T14:29:12;24.10;69.50
42147;DHT22;27815;43.410;11.852;2022-08-19T14:33:15;24.30;66.90
42147;DHT22;27815;43.410;11.852;2022-08-19T14:37:18;24.50;67.80
42147;DHT22;27815;43.410;11.852;2022-08-19T14:41:22;24.70;66.20
42147;DHT22;27815;43.410;11.852;2022-08-19T14:45:27;24.80;65.80
42147;DHT22;27815;43.410;11.852;2022-08-19T14:49:30;24.80;63.70
42147;DHT22;27815;43.410;11.852;2022-08-19T14:53:37;24.90;64.00
42147;DHT22;27815;43.410;11.852;2022-08-19T14:57:41;25.00;63.60
42147;DHT22;27815;43.410;11.852;2022-08-19T15:01:44;25.10;64.10
42147;DHT22;27815;43.410;11.852;2022-08-19T15:05:46;25.30;62.90
42147;DHT22;27815;43.410;11.852;2022-08-19T15:09:50;25.40;61.40
42147;DHT22;27815;43.410;11.852;2022-08-19T15:13:56;25.50;60.60
42147;DHT22;27815;43.410;11.852;2022-08-19T15:17:59;25.70;60.60
42147;DHT22;27815;43.410;11.852;2022-08-19T15:22:04;25.80;60.40
42147;DHT22;27815;43.410;11.852;2022-08-19T15:26:07;25.90;59.60
42147;DHT22;27815;43.410;11.852;2022-08-19T15:30:22;26.00;58.10
42147;DHT22;27815;43.410;11.852;2022-08-19T15:34:26;26.10;58.10
42147;DHT22;27815;43.410;11.852;2022-08-19T15:38:29;26.40;54.80
42147;DHT22;27815;43.410;11.852;2022-08-19T15:42:32;26.60;54.70
42147;DHT22;27815;43.410;11.852;2022-08-19T15:46:38;27.00;52.80
42147;DHT22;27815;43.410;11.852;2022-08-19T15:50:41;27.00;52.30
42147;DHT22;27815;43.410;11.852;2022-08-19T15:54:44;27.30;51.10
42147;DHT22;27815;43.410;11.852;2022-08-19T15:58:47;27.40;51.00
42147;DHT22;27815;43.410;11.852;2022-08-19T16:03:13;27.20;51.40
42147;DHT22;27815;43.410;11.852;2022-08-19T16:07:41;27.10;50.50
42147;DHT22;27815;43.410;11.852;2022-08-19T16:11:45;27.20;49.60
42147;DHT22;27815;43.410;11.852;2022-08-19T16:15:58;27.00;49.40
42147;DHT22;27815;43.410;11.852;2022-08-19T16:20:03;26.90;48.90
42147;DHT22;27815;43.410;11.852;2022-08-19T16:24:07;27.50;48.00
42147;DHT22;27815;43.410;11.852;2022-08-19T16:28:11;28.50;47.10
42147;DHT22;27815;43.410;11.852;2022-08-19T16:32:14;29.50;45.20
42147;DHT22;27815;43.410;11.852;2022-08-19T16:36:17;30.10;43.80
42147;DHT22;27815;43.410;11.852;2022-08-19T16:40:20;29.90;44.60
42147;DHT22;27815;43.410;11.852;2022-08-19T16:44:23;30.50;43.10
42147;DHT22;27815;43.410;11.852;2022-08-19T16:48:31;30.90;43.10
42147;DHT22;27815;43.410;11.852;2022-08-19T16:52:34;30.80;41.60
42147;DHT22;27815;43.410;11.852;2022-08-19T16:56:39;31.10;41.10
42147;DHT22;27815;43.410;11.852;2022-08-19T17:00:42;30.50;41.30
42147;DHT22;27815;43.410;11.852;2022-08-19T17:04:45;29.40;42.90
42147;DHT22;27815;43.410;11.852;2022-08-19T17:09:00;28.50;44.10
42147;DHT22;27815;43.410;11.852;2022-08-19T17:13:06;27.80;44.90
42147;DHT22;27815;43.410;11.852;2022-08-19T17:17:09;27.00;46.60
42147;DHT22;27815;43.410;11.852;2022-08-19T17:21:34;26.40;48.10
42147;DHT22;27815;43.410;11.852;2022-08-19T17:25:37;26.00;48.90
42147;DHT22;27815;43.410;11.852;2022-08-19T17:29:41;25.90;50.10
42147;DHT22;27815;43.410;11.852;2022-08-19T17:33:50;26.50;50.00
42147;DHT22;27815;43.410;11.852;2022-08-19T17:38:02;26.20;51.00
42147;DHT22;27815;43.410;11.852;2022-08-19T17:42:05;25.90;52.40
42147;DHT22;27815;43.410;11.852;2022-08-19T17:46:10;25.50;53.90
42147;DHT22;27815;43.410;11.852;2022-08-19T17:50:20;25.10;54.90
42147;DHT22;27815;43.410;11.852;2022-08-19T17:54:24;24.90;55.90
42147;DHT22;27815;43.410;11.852;2022-08-19T17:58:35;24.50;56.90
42147;DHT22;27815;43.410;11.852;2022-08-19T18:03:03;24.20;58.40
42147;DHT22;27815;43.410;11.852;2022-08-19T18:07:08;24.00;58.20
42147;DHT22;27815;43.410;11.852;2022-08-19T18:11:11;23.70;59.60
42147;DHT22;27815;43.410;11.852;2022-08-19T18:15:15;23.60;60.20
42147;DHT22;27815;43.410;11.852;2022-08-19T18:19:19;23.50;61.00
42147;DHT22;27815;43.410;11.852;2022-08-19T18:23:23;23.30;61.70
42147;DHT22;27815;43.410;11.852;2022-08-19T18:27:46;23.20;62.40
42147;DHT22;27815;43.410;11.852;2022-08-19T18:31:49;23.10;62.90
42147;DHT22;27815;43.410;11.852;2022-08-19T18:35:52;23.00;63.40
42147;DHT22;27815;43.410;11.852;2022-08-19T18:39:55;22.90;63.90
42147;DHT22;27815;43.410;11.852;2022-08-19T18:44:16;22.90;64.20
42147;DHT22;27815;43.410;11.852;2022-08-19T18:48:39;22.80;64.50
42147;DHT22;27815;43.410;11.852;2022-08-19T18:53:02;22.80;64.50
42147;DHT22;27815;43.410;11.852;2022-08-19T18:57:07;22.80;65.20
42147;DHT22;27815;43.410;11.852;2022-08-19T19:01:18;22.70;65.30
42147;DHT22;27815;43.410;11.852;2022-08-19T19:05:22;22.60;65.80
42147;DHT22;27815;43.410;11.852;2022-08-19T19:09:27;22.50;66.10
42147;DHT22;27815;43.410;11.852;2022-08-19T19:13:31;22.50;66.60
42147;DHT22;27815;43.410;11.852;2022-08-19T19:17:34;22.40;66.70
42147;DHT22;27815;43.410;11.852;2022-08-19T19:21:37;22.30;67.10
42147;DHT22;27815;43.410;11.852;2022-08-19T19:25:44;22.30;67.30
42147;DHT22;27815;43.410;11.852;2022-08-19T19:29:52;22.20;67.50
42147;DHT22;27815;43.410;11.852;2022-08-19T19:33:55;22.20;67.40
42147;DHT22;27815;43.410;11.852;2022-08-19T19:37:58;22.20;67.60
42147;DHT22;27815;43.410;11.852;2022-08-19T19:42:09;22.10;67.90
42147;DHT22;27815;43.410;11.852;2022-08-19T19:46:15;22.10;68.20
42147;DHT22;27815;43.410;11.852;2022-08-19T19:50:19;22.00;68.40
42147;DHT22;27815;43.410;11.852;2022-08-19T19:54:22;22.00;69.00
42147;DHT22;27815;43.410;11.852;2022-08-19T19:58:26;22.00;69.40
42147;DHT22;27815;43.410;11.852;2022-08-19T20:02:30;22.00;69.60
42147;DHT22;27815;43.410;11.852;2022-08-19T20:06:33;22.00;69.60
42147;DHT22;27815;43.410;11.852;2022-08-19T20:10:37;22.00;69.90
42147;DHT22;27815;43.410;11.852;2022-08-19T20:14:40;22.00;69.90
42147;DHT22;27815;43.410;11.852;2022-08-19T20:18:43;22.00;69.90
42147;DHT22;27815;43.410;11.852;2022-08-19T20:22:46;22.10;70.10
42147;DHT22;27815;43.410;11.852;2022-08-19T20:26:50;22.00;70.00
42147;DHT22;27815;43.410;11.852;2022-08-19T20:30:55;22.00;70.30
42147;DHT22;27815;43.410;11.852;2022-08-19T20:35:00;22.00;70.40
42147;DHT22;27815;43.410;11.852;2022-08-19T20:39:04;22.10;70.30
42147;DHT22;27815;43.410;11.852;2022-08-19T20:43:11;22.10;70.30
42147;DHT22;27815;43.410;11.852;2022-08-19T20:47:14;22.20;70.10
42147;DHT22;27815;43.410;11.852;2022-08-19T20:51:28;22.20;70.40
42147;DHT22;27815;43.410;11.852;2022-08-19T20:55:32;22.10;70.40
42147;DHT22;27815;43.410;11.852;2022-08-19T20:59:36;22.10;70.40
42147;DHT22;27815;43.410;11.852;2022-08-19T21:03:40;22.10;70.70
42147;DHT22;27815;43.410;11.852;2022-08-19T21:07:44;22.20;70.90
42147;DHT22;27815;43.410;11.852;2022-08-19T21:11:48;22.20;70.60
42147;DHT22;27815;43.410;11.852;2022-08-19T21:15:51;22.20;70.90
42147;DHT22;27815;43.410;11.852;2022-08-19T21:19:54;22.10;71.30
42147;DHT22;27815;43.410;11.852;2022-08-19T21:23:56;22.10;71.40
42147;DHT22;27815;43.410;11.852;2022-08-19T21:27:59;22.10;71.10
42147;DHT22;27815;43.410;11.852;2022-08-19T21:32:03;22.10;71.20
42147;DHT22;27815;43.410;11.852;2022-08-19T21:36:06;22.10;71.20
42147;DHT22;27815;43.410;11.852;2022-08-19T21:40:09;22.00;71.40
42147;DHT22;27815;43.410;11.852;2022-08-19T21:44:12;22.00;71.70
42147;DHT22;27815;43.410;11.852;2022-08-19T21:48:16;22.00;71.50
42147;DHT22;27815;43.410;11.852;2022-08-19T21:52:25;22.00;71.60
42147;DHT22;27815;43.410;11.852;2022-08-19T21:56:28;22.00;71.60
42147;DHT22;27815;43.410;11.852;2022-08-19T22:00:32;22.00;71.80
42147;DHT22;27815;43.410;11.852;2022-08-19T22:04:36;22.00;71.70
42147;DHT22;27815;43.410;11.852;2022-08-19T22:08:42;22.10;71.70
42147;DHT22;27815;43.410;11.852;2022-08-19T22:12:46;22.10;71.70
42147;DHT22;27815;43.410;11.852;2022-08-19T22:16:53;22.10;72.00
42147;DHT22;27815;43.410;11.852;2022-08-19T22:20:56;22.00;72.50
42147;DHT22;27815;43.410;11.852;2022-08-19T22:25:10;22.00;72.50
42147;DHT22;27815;43.410;11.852;2022-08-19T22:29:13;22.00;72.90
42147;DHT22;27815;43.410;11.852;2022-08-19T22:33:19;21.90;73.00
42147;DHT22;27815;43.410;11.852;2022-08-19T22:37:24;21.80;73.50
42147;DHT22;27815;43.410;11.852;2022-08-19T22:41:27;21.70;74.10
42147;DHT22;27815;43.410;11.852;2022-08-19T22:45:31;21.60;74.50
42147;DHT22;27815;43.410;11.852;2022-08-19T22:49:34;21.60;74.90
42147;DHT22;27815;43.410;11.852;2022-08-19T22:53:40;21.70;74.60
42147;DHT22;27815;43.410;11.852;2022-08-19T22:57:43;21.60;74.90
42147;DHT22;27815;43.410;11.852;2022-08-19T23:01:46;21.50;75.00
42147;DHT22;27815;43.410;11.852;2022-08-19T23:05:49;21.50;75.40
42147;DHT22;27815;43.410;11.852;2022-08-19T23:09:53;21.40;75.60
42147;DHT22;27815;43.410;11.852;2022-08-19T23:13:56;21.40;75.70
42147;DHT22;27815;43.410;11.852;2022-08-19T23:18:02;21.40;76.00
42147;DHT22;27815;43.410;11.852;2022-08-19T23:22:05;21.40;76.10
42147;DHT22;27815;43.410;11.852;2022-08-19T23:26:09;21.20;76.30
42147;DHT22;27815;43.410;11.852;2022-08-19T23:30:13;21.20;76.60
42147;DHT22;27815;43.410;11.852;2022-08-19T23:34:28;21.10;76.80
42147;DHT22;27815;43.410;11.852;2022-08-19T23:38:31;21.20;76.70
42147;DHT22;27815;43.410;11.852;2022-08-19T23:42:39;21.20;76.70
42147;DHT22;27815;43.410;11.852;2022-08-19T23:46:42;21.30;76.80
42147;DHT22;27815;43.410;11.852;2022-08-19T23:50:56;21.20;76.50
42147;DHT22;27815;43.410;11.852;2022-08-19T23:55:02;21.20;76.50
42147;DHT22;27815;43.410;11.852;2022-08-19T23:59:05;21.10;76.50
